JES3166 SAZN-SABE
Flight info
| Callsign | JES3166 |
|---|---|
| Flight time | N/A |
| Altitude | 37000 |
| Route | NIDBA3C NIDBA DCT ISMIL UT655 ASADA ASADA9R |
| Aircraft | A320/M-SDE3FGHIRWY/LB1 |
Departure
| Time | 2026-05-08 22:09 |
|---|---|
| Airport | Presidente Perón International Airport (SAZN) |
Arrival
| Time | N/A |
|---|---|
| Airport | Aeroparque Jorge Newbery (SABE) |
| Time | Latitude | Longitude | Altitude | Speed | Heading |
|---|---|---|---|---|---|
| 2026-05-08 21:43 | -38.95152 | -68.14112 | 904 ft | 0 kts | 180° |
| 2026-05-08 22:02 | -38.95147 | -68.14112 | 904 ft | 4 kts | 180° |
| 2026-05-08 22:03 | -38.95120 | -68.14113 | 907 ft | 4 kts | 180° |
| 2026-05-08 22:03 | -38.95093 | -68.14113 | 906 ft | 4 kts | 180° |
| 2026-05-08 22:03 | -38.95075 | -68.14113 | 906 ft | 0 kts | 180° |
| 2026-05-08 22:05 | -38.95086 | -68.14109 | 907 ft | 2 kts | 156° |
| 2026-05-08 22:06 | -38.95093 | -68.14084 | 896 ft | 4 kts | 97° |
| 2026-05-08 22:06 | -38.95096 | -68.14039 | 911 ft | 6 kts | 93° |
| 2026-05-08 22:06 | -38.95081 | -68.13984 | 906 ft | 7 kts | 39° |
| 2026-05-08 22:06 | -38.95033 | -68.13999 | 904 ft | 8 kts | 317° |
| 2026-05-08 22:07 | -38.95027 | -68.14007 | 904 ft | 0 kts | 316° |
| 2026-05-08 22:07 | -38.95025 | -68.14009 | 904 ft | 1 kts | 316° |
| 2026-05-08 22:07 | -38.95013 | -68.14025 | 904 ft | 4 kts | 314° |
| 2026-05-08 22:07 | -38.94981 | -68.14067 | 904 ft | 10 kts | 315° |
| 2026-05-08 22:08 | -38.94915 | -68.14130 | 906 ft | 14 kts | 320° |
| 2026-05-08 22:08 | -38.94904 | -68.14344 | 904 ft | 51 kts | 269° |
| 2026-05-08 22:08 | -38.94903 | -68.15095 | 902 ft | 114 kts | 270° |
| 2026-05-08 22:08 | -38.94900 | -68.16324 | 935 ft | 157 kts | 270° |
| 2026-05-08 22:09 | -38.94876 | -68.17757 | 1453 ft | 161 kts | 265° |
| 2026-05-08 22:09 | -38.94851 | -68.19193 | 2178 ft | 160 kts | 261° |
| 2026-05-08 22:09 | -38.94847 | -68.20620 | 2780 ft | 162 kts | 259° |
| 2026-05-08 22:09 | -38.94859 | -68.22155 | 3074 ft | 184 kts | 259° |
| 2026-05-08 22:10 | -38.94875 | -68.23905 | 3352 ft | 208 kts | 260° |
| 2026-05-08 22:10 | -38.94885 | -68.25864 | 3757 ft | 228 kts | 261° |
| 2026-05-08 22:10 | -38.94880 | -68.27932 | 4546 ft | 233 kts | 261° |
| 2026-05-08 22:10 | -38.94790 | -68.30057 | 5243 ft | 253 kts | 275° |
| 2026-05-08 22:11 | -38.93857 | -68.32160 | 5660 ft | 294 kts | 313° |
| 2026-05-08 22:11 | -38.92013 | -68.33416 | 6364 ft | 310 kts | 349° |
| 2026-05-08 22:11 | -38.89880 | -68.33304 | 7130 ft | 308 kts | 24° |
| 2026-05-08 22:11 | -38.88140 | -68.31866 | 7950 ft | 293 kts | 57° |
| 2026-05-08 22:12 | -38.87280 | -68.29605 | 8771 ft | 278 kts | 86° |
| 2026-05-08 22:12 | -38.86973 | -68.27159 | 9614 ft | 279 kts | 88° |
| 2026-05-08 22:12 | -38.86680 | -68.24678 | 10399 ft | 284 kts | 88° |
| 2026-05-08 22:12 | -38.86387 | -68.22155 | 11105 ft | 288 kts | 88° |
| 2026-05-08 22:13 | -38.86093 | -68.19594 | 11837 ft | 293 kts | 87° |
| 2026-05-08 22:13 | -38.85552 | -68.17019 | 12524 ft | 305 kts | 77° |
| 2026-05-08 22:13 | -38.84709 | -68.14471 | 13198 ft | 314 kts | 71° |
| 2026-05-08 22:13 | -38.83786 | -68.11919 | 13879 ft | 318 kts | 75° |
| 2026-05-08 22:14 | -38.83007 | -68.09179 | 14049 ft | 337 kts | 78° |
| 2026-05-08 22:14 | -38.82275 | -68.06240 | 14282 ft | 352 kts | 80° |
| 2026-05-08 22:14 | -38.81577 | -68.03201 | 14807 ft | 357 kts | 81° |
| 2026-05-08 22:14 | -38.80897 | -68.00121 | 15395 ft | 360 kts | 81° |
| 2026-05-08 22:15 | -38.80222 | -67.97015 | 16001 ft | 363 kts | 82° |
| 2026-05-08 22:15 | -38.79537 | -67.93882 | 16612 ft | 366 kts | 82° |
| 2026-05-08 22:15 | -38.78842 | -67.90730 | 17193 ft | 369 kts | 82° |
| 2026-05-08 22:15 | -38.78133 | -67.87550 | 17781 ft | 372 kts | 81° |
| 2026-05-08 22:16 | -38.77414 | -67.84344 | 18376 ft | 375 kts | 82° |
| 2026-05-08 22:16 | -38.76690 | -67.81122 | 18899 ft | 378 kts | 81° |
| 2026-05-08 22:16 | -38.75957 | -67.77873 | 19446 ft | 380 kts | 81° |
| 2026-05-08 22:16 | -38.75221 | -67.74614 | 20014 ft | 382 kts | 81° |
| 2026-05-08 22:17 | -38.74480 | -67.71333 | 20586 ft | 384 kts | 81° |
| 2026-05-08 22:17 | -38.73735 | -67.68041 | 21141 ft | 385 kts | 81° |
| 2026-05-08 22:17 | -38.72988 | -67.64742 | 21662 ft | 387 kts | 81° |
| 2026-05-08 22:17 | -38.72235 | -67.61426 | 22183 ft | 388 kts | 81° |
| 2026-05-08 22:18 | -38.71440 | -67.58112 | 22701 ft | 394 kts | 76° |
| 2026-05-08 22:18 | -38.70221 | -67.54920 | 23186 ft | 402 kts | 69° |
| 2026-05-08 22:18 | -38.68914 | -67.51745 | 23709 ft | 404 kts | 69° |
| 2026-05-08 22:18 | -38.67613 | -67.48548 | 24091 ft | 406 kts | 70° |
| 2026-05-08 22:19 | -38.66309 | -67.45329 | 24461 ft | 409 kts | 70° |
| 2026-05-08 22:19 | -38.64992 | -67.42084 | 24822 ft | 413 kts | 69° |
| 2026-05-08 22:19 | -38.63658 | -67.38818 | 25185 ft | 416 kts | 69° |
| 2026-05-08 22:19 | -38.62305 | -67.35523 | 25542 ft | 419 kts | 69° |
| 2026-05-08 22:20 | -38.60942 | -67.32214 | 25896 ft | 422 kts | 69° |
| 2026-05-08 22:20 | -38.59565 | -67.28880 | 26249 ft | 426 kts | 69° |
| 2026-05-08 22:20 | -38.58177 | -67.25524 | 26599 ft | 429 kts | 69° |
| 2026-05-08 22:20 | -38.56772 | -67.22143 | 26954 ft | 432 kts | 69° |
| 2026-05-08 22:21 | -38.55376 | -67.18790 | 27386 ft | 433 kts | 69° |
| 2026-05-08 22:21 | -38.53966 | -67.15393 | 27791 ft | 434 kts | 69° |
| 2026-05-08 22:21 | -38.52552 | -67.11977 | 28157 ft | 436 kts | 69° |
| 2026-05-08 22:21 | -38.51129 | -67.08541 | 28507 ft | 439 kts | 69° |
| 2026-05-08 22:22 | -38.49693 | -67.05086 | 28868 ft | 442 kts | 68° |
| 2026-05-08 22:22 | -38.48245 | -67.01616 | 29204 ft | 445 kts | 68° |
| 2026-05-08 22:22 | -38.46785 | -66.98118 | 29556 ft | 448 kts | 68° |
| 2026-05-08 22:22 | -38.45319 | -66.94600 | 29897 ft | 450 kts | 68° |
| 2026-05-08 22:23 | -38.43843 | -66.91061 | 30233 ft | 453 kts | 68° |
| 2026-05-08 22:23 | -38.42358 | -66.87509 | 30588 ft | 454 kts | 68° |
| 2026-05-08 22:23 | -38.40866 | -66.83960 | 30987 ft | 453 kts | 68° |
| 2026-05-08 22:23 | -38.39376 | -66.80419 | 31394 ft | 452 kts | 68° |
| 2026-05-08 22:24 | -38.37891 | -66.76886 | 31765 ft | 452 kts | 68° |
| 2026-05-08 22:24 | -38.36409 | -66.73350 | 32119 ft | 453 kts | 68° |
| 2026-05-08 22:24 | -38.34922 | -66.69803 | 32457 ft | 454 kts | 68° |
| 2026-05-08 22:24 | -38.33429 | -66.66253 | 32805 ft | 455 kts | 68° |
| 2026-05-08 22:25 | -38.31933 | -66.62702 | 33154 ft | 455 kts | 68° |
| 2026-05-08 22:25 | -38.30435 | -66.59150 | 33510 ft | 456 kts | 68° |
| 2026-05-08 22:25 | -38.28930 | -66.55587 | 33901 ft | 457 kts | 68° |
| 2026-05-08 22:25 | -38.27420 | -66.52026 | 34255 ft | 457 kts | 68° |
| 2026-05-08 22:26 | -38.25907 | -66.48464 | 34533 ft | 458 kts | 68° |
| 2026-05-08 22:26 | -38.24391 | -66.44893 | 34763 ft | 460 kts | 67° |
| 2026-05-08 22:26 | -38.22871 | -66.41309 | 35002 ft | 461 kts | 67° |
| 2026-05-08 22:26 | -38.21359 | -66.37755 | 35247 ft | 462 kts | 67° |
| 2026-05-08 22:27 | -38.19829 | -66.34154 | 35483 ft | 463 kts | 67° |
| 2026-05-08 22:27 | -38.18297 | -66.30548 | 35735 ft | 464 kts | 67° |
| 2026-05-08 22:27 | -38.16757 | -66.26936 | 35985 ft | 465 kts | 67° |
| 2026-05-08 22:27 | -38.15211 | -66.23316 | 36240 ft | 466 kts | 66° |
| 2026-05-08 22:28 | -38.13666 | -66.19702 | 36466 ft | 466 kts | 66° |
| 2026-05-08 22:28 | -38.12119 | -66.16078 | 36712 ft | 467 kts | 66° |
| 2026-05-08 22:28 | -38.10569 | -66.12455 | 36945 ft | 467 kts | 66° |
| 2026-05-08 22:28 | -38.09012 | -66.08818 | 37055 ft | 469 kts | 66° |
| 2026-05-08 22:29 | -38.07450 | -66.05178 | 37082 ft | 470 kts | 66° |
| 2026-05-08 22:29 | -38.04306 | -65.97886 | 37065 ft | 471 kts | 66° |
| 2026-05-08 22:30 | -38.01164 | -65.90602 | 37078 ft | 470 kts | 65° |
| 2026-05-08 22:30 | -37.98028 | -65.83343 | 37057 ft | 469 kts | 65° |
| 2026-05-08 22:31 | -37.94888 | -65.76094 | 37061 ft | 469 kts | 65° |
| 2026-05-08 22:31 | -37.91742 | -65.68845 | 37055 ft | 469 kts | 65° |
| 2026-05-08 22:32 | -37.88593 | -65.61604 | 37058 ft | 470 kts | 65° |
| 2026-05-08 22:32 | -37.85458 | -65.54414 | 37067 ft | 469 kts | 65° |
| 2026-05-08 22:33 | -37.82301 | -65.47202 | 37053 ft | 468 kts | 65° |
| 2026-05-08 22:33 | -37.79151 | -65.40001 | 37046 ft | 468 kts | 64° |
| 2026-05-08 22:34 | -37.76000 | -65.32810 | 37032 ft | 468 kts | 64° |
| 2026-05-08 22:34 | -37.72843 | -65.25626 | 37041 ft | 468 kts | 64° |
| 2026-05-08 22:35 | -37.69670 | -65.18445 | 37030 ft | 467 kts | 64° |
| 2026-05-08 22:35 | -37.66497 | -65.11275 | 37028 ft | 467 kts | 64° |
| 2026-05-08 22:36 | -37.63328 | -65.04113 | 37017 ft | 467 kts | 64° |
| 2026-05-08 22:36 | -37.60160 | -64.96956 | 37003 ft | 467 kts | 64° |
| 2026-05-08 22:37 | -37.56986 | -64.89823 | 37010 ft | 467 kts | 64° |
| 2026-05-08 22:37 | -37.53806 | -64.82691 | 37008 ft | 466 kts | 64° |
| 2026-05-08 22:38 | -37.50628 | -64.75577 | 37008 ft | 466 kts | 64° |
| 2026-05-08 22:38 | -37.47466 | -64.68509 | 36999 ft | 466 kts | 64° |
| 2026-05-08 22:39 | -37.44284 | -64.61411 | 36997 ft | 465 kts | 63° |
| 2026-05-08 22:39 | -37.41096 | -64.54321 | 36986 ft | 465 kts | 63° |
| 2026-05-08 22:40 | -37.37904 | -64.47247 | 36973 ft | 465 kts | 63° |
| 2026-05-08 22:40 | -37.34704 | -64.40170 | 36969 ft | 466 kts | 63° |
| 2026-05-08 22:41 | -37.31496 | -64.33087 | 36971 ft | 466 kts | 63° |
| 2026-05-08 22:41 | -37.28291 | -64.26017 | 36970 ft | 466 kts | 63° |
| 2026-05-08 22:42 | -37.25084 | -64.18959 | 36960 ft | 465 kts | 63° |
| 2026-05-08 22:42 | -37.22414 | -64.13097 | 36960 ft | 465 kts | 63° |
| 2026-05-08 22:43 | -37.19200 | -64.06059 | 36951 ft | 465 kts | 63° |
| 2026-05-08 22:43 | -37.15976 | -63.99023 | 36952 ft | 465 kts | 63° |
| 2026-05-08 22:44 | -37.12756 | -63.91993 | 36944 ft | 465 kts | 63° |
| 2026-05-08 22:44 | -37.09533 | -63.84975 | 36932 ft | 465 kts | 62° |
| 2026-05-08 22:45 | -37.06300 | -63.77954 | 36936 ft | 465 kts | 62° |
| 2026-05-08 22:45 | -37.03069 | -63.70932 | 36931 ft | 465 kts | 62° |
| 2026-05-08 22:46 | -36.99830 | -63.63926 | 36925 ft | 465 kts | 62° |
| 2026-05-08 22:46 | -36.96583 | -63.56928 | 36915 ft | 465 kts | 62° |
| 2026-05-08 22:47 | -36.93332 | -63.49932 | 36917 ft | 465 kts | 62° |
| 2026-05-08 22:47 | -36.90084 | -63.42933 | 36912 ft | 465 kts | 61° |
| 2026-05-08 22:48 | -36.86831 | -63.35941 | 36911 ft | 465 kts | 61° |
| 2026-05-08 22:48 | -36.83589 | -63.29007 | 36909 ft | 465 kts | 61° |
| 2026-05-08 22:49 | -36.80323 | -63.22033 | 36898 ft | 465 kts | 62° |
| 2026-05-08 22:49 | -36.75431 | -63.11603 | 36891 ft | 464 kts | 62° |
| 2026-05-08 22:50 | -36.72162 | -63.04665 | 36901 ft | 464 kts | 60° |
| 2026-05-08 22:50 | -36.68900 | -62.97740 | 36895 ft | 463 kts | 60° |
| 2026-05-08 22:51 | -36.65628 | -62.90832 | 36891 ft | 463 kts | 61° |
| 2026-05-08 22:51 | -36.62355 | -62.83929 | 36887 ft | 463 kts | 61° |
| 2026-05-08 22:52 | -36.59080 | -62.77021 | 36890 ft | 463 kts | 62° |
| 2026-05-08 22:52 | -36.55802 | -62.70135 | 36886 ft | 463 kts | 60° |
| 2026-05-08 22:53 | -36.52518 | -62.63246 | 36887 ft | 463 kts | 61° |
| 2026-05-08 22:53 | -36.49239 | -62.56371 | 36880 ft | 462 kts | 60° |
| 2026-05-08 22:54 | -36.45949 | -62.49505 | 36863 ft | 463 kts | 60° |
| 2026-05-08 22:54 | -36.42657 | -62.42634 | 36869 ft | 463 kts | 60° |
| 2026-05-08 22:55 | -36.39357 | -62.35763 | 36864 ft | 464 kts | 60° |
| 2026-05-08 22:55 | -36.36040 | -62.28889 | 36873 ft | 464 kts | 60° |
| 2026-05-08 22:56 | -36.32726 | -62.22021 | 36870 ft | 464 kts | 60° |
| 2026-05-08 22:56 | -36.29430 | -62.15198 | 36865 ft | 464 kts | 59° |
| 2026-05-08 22:57 | -36.26138 | -62.08390 | 36866 ft | 464 kts | 59° |
| 2026-05-08 22:57 | -36.22831 | -62.01565 | 36860 ft | 464 kts | 60° |
| 2026-05-08 22:58 | -36.19499 | -61.94711 | 36863 ft | 465 kts | 60° |
| 2026-05-08 22:58 | -36.16155 | -61.87863 | 36864 ft | 465 kts | 59° |
| 2026-05-08 22:59 | -36.12814 | -61.81031 | 36867 ft | 465 kts | 59° |
| 2026-05-08 22:59 | -36.11189 | -61.77698 | 36071 ft | 465 kts | 59° |
| 2026-05-08 22:59 | -36.09515 | -61.74279 | 36881 ft | 463 kts | 59° |
| 2026-05-08 23:00 | -36.06176 | -61.67469 | 36853 ft | 464 kts | 59° |
| 2026-05-08 23:00 | -36.02828 | -61.60653 | 36854 ft | 464 kts | 59° |
| 2026-05-08 23:01 | -35.99479 | -61.53846 | 36852 ft | 464 kts | 59° |
| 2026-05-08 23:01 | -35.96129 | -61.47051 | 36851 ft | 464 kts | 59° |
| 2026-05-08 23:02 | -35.92780 | -61.40259 | 36852 ft | 464 kts | 59° |